createdAt,value
2019-01-29T00:02:10.327Z,100039.02
2019-01-29T00:04:40.617Z,100044.26
2019-01-29T00:07:10.966Z,100046.50
2019-01-29T00:09:41.275Z,100041.70
2019-01-29T00:12:11.667Z,100042.56
2019-01-29T00:14:42.016Z,100050.61
2019-01-29T00:17:12.429Z,100046.78
2019-01-29T00:19:42.825Z,100047.22
2019-01-29T00:22:13.456Z,100046.27
2019-01-29T00:24:43.859Z,100049.03
2019-01-29T00:27:14.191Z,100045.95
2019-01-29T00:29:44.526Z,100043.44
2019-01-29T00:32:14.930Z,100046.00
2019-01-29T00:34:50.048Z,100048.33
2019-01-29T00:37:21.460Z,100043.11
2019-01-29T00:39:54.876Z,100047.53
2019-01-29T00:42:25.263Z,100050.06
2019-01-29T00:44:55.672Z,100054.80
2019-01-29T00:47:26.078Z,100048.24
2019-01-29T00:49:56.522Z,100044.09
2019-01-29T00:52:26.847Z,100044.09
2019-01-29T00:54:57.588Z,100045.40
2019-01-29T00:57:27.910Z,100045.45
2019-01-29T00:59:58.332Z,100043.00
2019-01-29T01:02:28.721Z,100043.83
2019-01-29T01:04:59.392Z,100050.25
2019-01-29T01:07:31.611Z,100051.71
2019-01-29T01:10:02.153Z,100058.66
2019-01-29T01:12:32.661Z,100059.41
2019-01-29T01:15:03.088Z,100065.62
2019-01-29T01:17:33.684Z,100070.05
2019-01-29T01:20:05.031Z,100075.61
2019-01-29T01:22:37.170Z,100086.89
2019-01-29T01:25:07.697Z,100089.52
2019-01-29T01:27:38.149Z,100088.88
2019-01-29T01:30:12.776Z,100091.92
2019-01-29T01:32:44.021Z,100093.72
2019-01-29T01:35:14.445Z,100098.50
2019-01-29T01:37:44.867Z,100101.09
2019-01-29T01:40:20.408Z,100100.66
2019-01-29T01:42:50.775Z,100101.60
2019-01-29T01:45:21.103Z,100101.56
2019-01-29T01:47:51.539Z,100102.76
2019-01-29T01:50:21.904Z,100108.55
2019-01-29T01:52:59.146Z,100111.47
2019-01-29T01:55:24.896Z,100105.94
2019-01-29T01:57:56.002Z,100111.47
2019-01-29T02:00:26.662Z,100113.53
2019-01-29T02:02:58.881Z,100114.11
2019-01-29T02:05:29.249Z,100108.55
2019-01-29T02:07:59.598Z,100111.03
2019-01-29T02:10:30.964Z,100118.77
2019-01-29T02:13:01.623Z,100114.40
2019-01-29T02:15:32.027Z,100117.69
2019-01-29T02:18:02.542Z,100120.33
2019-01-29T02:20:33.243Z,100120.75
2019-01-29T02:23:08.130Z,100122.75
2019-01-29T02:25:36.614Z,100129.72
2019-01-29T02:28:07.328Z,100128.39
2019-01-29T02:30:37.736Z,100130.88
2019-01-29T02:33:08.152Z,100128.02
2019-01-29T02:35:39.536Z,100130.41
2019-01-29T02:38:12.880Z,100135.17
2019-01-29T02:40:43.512Z,100130.54
2019-01-29T02:43:14.665Z,100133.64
2019-01-29T02:45:47.543Z,100131.91
2019-01-29T02:48:18.464Z,100133.67
2019-01-29T02:50:48.824Z,100131.55
2019-01-29T02:53:19.510Z,100135.52
2019-01-29T02:55:50.152Z,100140.31
2019-01-29T02:58:20.537Z,100144.38
2019-01-29T03:00:50.918Z,100150.16
2019-01-29T03:03:21.381Z,100141.92
2019-01-29T03:05:51.756Z,100140.48
2019-01-29T03:08:22.144Z,100148.78
2019-01-29T03:10:52.753Z,100143.62
2019-01-29T03:13:26.345Z,100140.22
2019-01-29T03:15:56.686Z,100136.28
2019-01-29T03:18:27.088Z,100137.58
2019-01-29T03:20:57.841Z,100138.70
2019-01-29T03:23:28.816Z,100143.88
2019-01-29T03:25:59.152Z,100142.04
2019-01-29T03:28:29.883Z,100142.94
2019-01-29T03:31:00.266Z,100140.20
2019-01-29T03:33:33.458Z,100138.97
2019-01-29T03:36:03.863Z,100140.34
2019-01-29T03:38:36.231Z,100135.90
2019-01-29T03:41:06.607Z,100134.27
2019-01-29T03:43:36.955Z,100135.94
2019-01-29T03:46:07.344Z,100138.43
2019-01-29T03:48:37.972Z,100140.27
2019-01-29T03:51:08.330Z,100139.33
2019-01-29T03:53:38.651Z,100138.91
2019-01-29T03:56:09.008Z,100139.80
2019-01-29T03:58:39.417Z,100141.31
2019-01-29T04:01:09.786Z,100144.64
2019-01-29T04:03:41.610Z,100140.45
2019-01-29T04:06:11.954Z,100149.12
2019-01-29T04:08:42.716Z,100148.22
2019-01-29T04:11:13.300Z,100148.14
2019-01-29T04:13:43.667Z,100149.59
2019-01-29T04:16:14.027Z,100151.05
2019-01-29T04:18:44.722Z,100145.59
2019-01-29T04:21:15.095Z,100150.86
2019-01-29T04:23:47.743Z,100144.38
2019-01-29T04:26:17.657Z,100148.28
2019-01-29T04:28:48.058Z,100147.12
2019-01-29T04:31:18.636Z,100149.48
2019-01-29T04:33:49.025Z,100152.54
2019-01-29T04:36:20.720Z,100158.70
2019-01-29T04:38:51.280Z,100162.08
2019-01-29T04:41:37.495Z,100155.98
2019-01-29T04:44:12.649Z,100161.98
2019-01-29T04:46:43.117Z,100164.67
2019-01-29T04:49:13.697Z,100153.44
2019-01-29T04:51:45.267Z,100152.17
2019-01-29T04:54:15.654Z,100150.88
2019-01-29T04:56:46.018Z,100153.13
2019-01-29T04:59:17.059Z,100150.56
2019-01-29T05:01:47.483Z,100151.30
2019-01-29T05:04:17.917Z,100143.53
2019-01-29T05:06:49.741Z,100142.20
2019-01-29T05:09:23.330Z,100136.64
2019-01-29T05:11:54.314Z,100143.60
2019-01-29T05:14:24.724Z,100146.94
2019-01-29T05:16:55.211Z,100156.04
2019-01-29T05:19:25.648Z,100149.51
2019-01-29T05:21:56.134Z,100154.98
2019-01-29T05:24:26.505Z,100146.31
2019-01-29T05:26:58.337Z,100145.41
2019-01-29T05:29:31.844Z,100141.14
2019-01-29T05:32:02.190Z,100141.11
2019-01-29T05:34:34.936Z,100140.71
2019-01-29T05:37:05.677Z,100141.95
2019-01-29T05:39:36.045Z,100138.48
2019-01-29T05:42:07.928Z,100139.34
2019-01-29T05:44:38.229Z,100139.72
2019-01-29T05:47:08.665Z,100139.19
2019-01-29T05:49:39.359Z,100137.05
2019-01-29T05:52:13.136Z,100136.55
2019-01-29T05:54:43.662Z,100132.65
2019-01-29T05:57:16.484Z,100129.18
2019-01-29T05:59:46.870Z,100132.25
2019-01-29T06:02:17.645Z,100127.95
2019-01-29T06:04:48.011Z,100127.98
2019-01-29T06:07:18.503Z,100124.58
2019-01-29T06:09:49.326Z,100129.78
2019-01-29T06:12:19.825Z,100128.11
2019-01-29T06:14:52.439Z,100131.05
2019-01-29T06:17:27.546Z,100131.95
2019-01-29T06:19:56.956Z,100129.94
2019-01-29T06:22:27.271Z,100127.88
2019-01-29T06:24:57.666Z,100127.88
2019-01-29T06:27:28.989Z,100128.67
2019-01-29T06:29:59.409Z,100129.11
2019-01-29T06:32:29.805Z,100133.84
2019-01-29T06:35:00.330Z,100134.67
2019-01-29T06:37:33.200Z,100136.78
2019-01-29T06:40:03.592Z,100134.15
2019-01-29T06:42:34.408Z,100131.05
2019-01-29T06:45:06.132Z,100140.98
2019-01-29T06:47:39.950Z,100141.28
2019-01-29T06:50:13.110Z,100141.69
2019-01-29T06:52:43.760Z,100146.45
2019-01-29T06:55:18.728Z,100148.66
2019-01-29T06:57:55.708Z,100151.22
2019-01-29T07:00:25.739Z,100153.76
2019-01-29T07:02:56.539Z,100158.02
2019-01-29T07:05:29.865Z,100152.42
2019-01-29T07:08:01.773Z,100162.22
2019-01-29T07:10:32.726Z,100159.16
2019-01-29T07:13:03.366Z,100161.49
2019-01-29T07:16:12.613Z,100158.45
2019-01-29T07:19:06.913Z,100150.13
2019-01-29T07:21:37.344Z,100150.95
2019-01-29T07:24:08.154Z,100155.69
2019-01-29T07:26:38.483Z,100153.45
2019-01-29T07:29:08.853Z,100154.66
2019-01-29T07:31:39.260Z,100152.55
2019-01-29T07:34:09.613Z,100148.55
2019-01-29T07:36:39.961Z,100148.14
2019-01-29T07:39:11.585Z,100147.75
2019-01-29T07:41:43.448Z,100142.44
2019-01-29T07:44:15.885Z,100149.81
2019-01-29T07:46:46.359Z,100150.75
2019-01-29T07:49:17.791Z,100147.31
2019-01-29T07:51:48.332Z,100147.31
2019-01-29T07:54:18.706Z,100153.34
2019-01-29T07:56:52.407Z,100148.55
2019-01-29T07:59:32.578Z,100148.94
2019-01-29T08:01:55.122Z,100147.87
2019-01-29T08:04:25.783Z,100143.93
2019-01-29T08:06:56.558Z,100143.49
2019-01-29T08:09:26.918Z,100139.88
2019-01-29T08:11:58.721Z,100145.63
2019-01-29T08:14:29.291Z,100143.28
2019-01-29T08:17:03.209Z,100142.98
2019-01-29T08:19:33.633Z,100140.86
2019-01-29T08:22:06.102Z,100142.55
2019-01-29T08:24:38.512Z,100143.35
2019-01-29T08:27:09.799Z,100139.38
2019-01-29T08:29:40.207Z,100143.17
2019-01-29T08:32:11.151Z,100139.70
2019-01-29T08:34:42.300Z,100137.42
2019-01-29T08:37:15.793Z,100142.05
2019-01-29T08:39:49.488Z,100136.91
2019-01-29T08:42:19.866Z,100139.52
2019-01-29T08:44:53.391Z,100137.20
2019-01-29T08:47:23.855Z,100136.91
2019-01-29T08:49:54.199Z,100134.20
2019-01-29T08:52:24.664Z,100128.87
2019-01-29T08:54:55.174Z,100126.67
2019-01-29T08:57:25.628Z,100126.67
2019-01-29T08:59:58.896Z,100125.52
2019-01-29T09:02:29.305Z,100122.92
2019-01-29T09:05:00.178Z,100124.06
2019-01-29T09:07:30.797Z,100114.08
2019-01-29T09:10:01.117Z,100116.93
2019-01-29T09:12:31.693Z,100113.77
2019-01-29T09:15:05.660Z,100121.35
2019-01-29T09:17:39.263Z,100114.72
2019-01-29T09:20:10.955Z,100111.13
2019-01-29T09:22:41.368Z,100110.97
2019-01-29T09:25:21.032Z,100109.66
2019-01-29T09:27:47.087Z,100107.33
2019-01-29T09:30:20.573Z,100092.95
2019-01-29T09:32:51.346Z,100085.80
2019-01-29T09:35:22.396Z,100087.45
2019-01-29T09:37:54.449Z,100082.55
2019-01-29T09:40:24.849Z,100079.33
2019-01-29T09:42:55.236Z,100078.38
2019-01-29T09:45:25.798Z,100076.98
2019-01-29T09:47:56.748Z,100075.98
2019-01-29T09:50:28.576Z,100072.80
2019-01-29T09:53:01.907Z,100075.27
2019-01-29T09:55:34.612Z,100072.44
2019-01-29T09:58:05.138Z,100071.88
2019-01-29T10:00:37.518Z,100067.91
2019-01-29T10:03:08.146Z,100068.22
2019-01-29T10:05:38.573Z,100066.82
2019-01-29T10:08:08.958Z,100064.64
2019-01-29T10:10:42.633Z,100054.40
2019-01-29T10:13:13.130Z,100060.66
2019-01-29T10:15:43.453Z,100058.41
2019-01-29T10:18:13.891Z,100053.56
2019-01-29T10:20:45.249Z,100045.02
2019-01-29T10:23:15.967Z,100046.23
2019-01-29T10:25:46.414Z,100049.66
2019-01-29T10:28:16.831Z,100047.68
2019-01-29T10:30:47.220Z,100049.77
2019-01-29T10:33:18.144Z,100048.89
2019-01-29T10:35:48.512Z,100047.07
2019-01-29T10:38:19.605Z,100041.02
2019-01-29T10:40:49.977Z,100037.94
2019-01-29T10:43:20.769Z,100034.45
2019-01-29T10:45:51.251Z,100033.49
2019-01-29T10:48:21.753Z,100021.22
2019-01-29T10:50:55.544Z,100022.04
2019-01-29T10:53:25.902Z,100013.64
2019-01-29T10:55:56.829Z,100013.59
2019-01-29T10:58:27.262Z,100006.76
2019-01-29T11:00:57.768Z,99999.37
2019-01-29T11:03:30.617Z,99994.77
2019-01-29T11:06:00.958Z,99992.89
2019-01-29T11:08:31.599Z,99990.11
2019-01-29T11:11:02.339Z,99992.55
2019-01-29T11:13:32.742Z,99981.95
2019-01-29T11:16:03.116Z,99989.44
2019-01-29T11:18:36.515Z,99977.38
2019-01-29T11:21:09.083Z,99975.52
2019-01-29T11:23:40.480Z,99967.26
2019-01-29T11:26:12.652Z,99958.77
2019-01-29T11:28:43.046Z,99956.04
2019-01-29T11:31:15.009Z,99955.09
2019-01-29T11:33:45.502Z,99951.68
2019-01-29T11:36:16.290Z,99949.59
2019-01-29T11:38:46.677Z,99946.63
2019-01-29T11:41:19.814Z,99938.89
2019-01-29T11:43:50.811Z,99935.72
2019-01-29T11:46:21.646Z,99935.95
2019-01-29T11:48:52.353Z,99927.19
2019-01-29T11:51:24.750Z,99926.08
2019-01-29T11:53:55.151Z,99929.41
2019-01-29T11:56:27.791Z,99924.05
2019-01-29T11:58:59.181Z,99922.49
2019-01-29T12:01:32.258Z,99904.14
2019-01-29T12:04:02.406Z,99905.12
2019-01-29T12:06:33.619Z,99912.77
2019-01-29T12:09:05.667Z,99905.34
2019-01-29T12:11:36.679Z,99897.03
2019-01-29T12:14:09.846Z,99897.65
2019-01-29T12:16:40.764Z,99901.56
2019-01-29T12:19:15.473Z,99895.67
2019-01-29T12:21:45.847Z,99890.62
2019-01-29T12:24:16.205Z,99885.17
2019-01-29T12:26:46.578Z,99882.25
2019-01-29T12:29:19.976Z,99882.90
2019-01-29T12:31:50.376Z,99876.06
2019-01-29T12:34:20.754Z,99870.39
2019-01-29T12:36:51.171Z,99859.45
2019-01-29T12:42:46.800Z,99851.80
2019-01-29T12:45:17.459Z,99847.38
2019-01-29T12:47:47.865Z,99849.39
2019-01-29T12:50:20.355Z,99838.98
2019-01-29T12:52:59.899Z,99840.13
2019-01-29T12:55:30.337Z,99833.72
2019-01-29T12:58:00.651Z,99824.19
2019-01-29T13:00:36.119Z,99825.70
2019-01-29T13:03:06.809Z,99822.59
2019-01-29T13:05:37.259Z,99820.25
2019-01-29T13:08:08.092Z,99811.23
2019-01-29T13:10:38.476Z,99803.42
2019-01-29T13:13:09.167Z,99805.30
2019-01-29T13:15:39.582Z,99803.06
2019-01-29T13:18:09.980Z,99793.84
2019-01-29T13:20:40.425Z,99795.22
2019-01-29T13:23:11.779Z,99790.19
2019-01-29T13:25:45.125Z,99783.90
2019-01-29T13:28:15.554Z,99782.47
2019-01-29T13:30:46.337Z,99778.97
2019-01-29T13:33:50.343Z,99781.41
2019-01-29T13:36:30.546Z,99778.72
2019-01-29T13:42:27.689Z,99767.22
2019-01-29T13:45:03.741Z,99769.55
2019-01-29T13:47:39.789Z,99766.69
2019-01-29T13:50:13.521Z,99755.95
2019-01-29T13:52:43.821Z,99754.56
2019-01-29T13:55:16.892Z,99743.88
2019-01-29T13:57:50.114Z,99744.03
2019-01-29T14:00:26.091Z,99737.08
2019-01-29T14:02:56.503Z,99734.17
2019-01-29T14:05:27.216Z,99732.25
2019-01-29T14:08:03.034Z,99721.60
2019-01-29T14:10:33.417Z,99718.42
2019-01-29T14:13:06.501Z,99716.95
2019-01-29T14:15:43.514Z,99710.03
2019-01-29T14:18:16.188Z,99710.41
2019-01-29T14:20:46.957Z,99713.47
2019-01-29T14:23:17.509Z,99712.02
2019-01-29T14:25:47.874Z,99713.71
2019-01-29T14:28:18.267Z,99716.86
2019-01-29T14:30:48.727Z,99699.77
2019-01-29T14:33:19.220Z,99703.64
2019-01-29T14:35:50.615Z,99703.20
2019-01-29T14:39:03.697Z,99693.73
2019-01-29T14:41:34.171Z,99690.69
2019-01-29T14:44:06.609Z,99690.69
2019-01-29T14:46:37.090Z,99687.69
2019-01-29T14:49:07.722Z,99697.60
2019-01-29T14:51:38.065Z,99689.32
2019-01-29T14:54:08.663Z,99695.53
2019-01-29T14:56:39.275Z,99691.84
2019-01-29T14:59:09.754Z,99687.25
2019-01-29T15:01:43.900Z,99675.09
2019-01-29T15:04:14.346Z,99675.03
2019-01-29T15:06:44.735Z,99673.02
2019-01-29T15:09:20.316Z,99675.14
2019-01-29T15:11:50.884Z,99669.36
2019-01-29T15:14:21.286Z,99669.48
2019-01-29T15:17:25.628Z,99663.25
2019-01-29T15:19:56.819Z,99667.46
2019-01-29T15:22:27.110Z,99657.82
2019-01-29T15:24:57.651Z,99654.97
2019-01-29T15:27:28.070Z,99648.67
2019-01-29T15:29:58.423Z,99649.98
2019-01-29T15:32:28.705Z,99642.80
2019-01-29T15:34:59.106Z,99643.53
2019-01-29T15:37:29.458Z,99639.68
2019-01-29T15:40:01.139Z,99637.95
2019-01-29T15:42:34.700Z,99635.77
2019-01-29T15:45:11.386Z,99632.11
2019-01-29T15:47:44.039Z,99630.48
2019-01-29T15:50:17.352Z,99625.05
2019-01-29T15:52:48.589Z,99619.14
2019-01-29T15:55:20.114Z,99610.07
2019-01-29T15:57:51.547Z,99618.78
2019-01-29T16:00:24.693Z,99605.25
2019-01-29T16:02:55.053Z,99603.70
2019-01-29T16:05:26.847Z,99610.44
2019-01-29T16:07:57.187Z,99603.70
2019-01-29T16:10:39.149Z,99605.55
2019-01-29T16:13:04.607Z,99604.75
2019-01-29T16:15:37.342Z,99603.33
2019-01-29T16:18:07.887Z,99600.42
2019-01-29T16:20:38.207Z,99599.72
2019-01-29T16:23:08.783Z,99596.84
2019-01-29T16:25:39.398Z,99595.25
2019-01-29T16:28:09.753Z,99591.03
2019-01-29T16:30:40.262Z,99586.73
2019-01-29T16:33:10.671Z,99580.33
2019-01-29T16:35:41.217Z,99587.34
2019-01-29T16:38:15.631Z,99583.53
2019-01-29T16:40:49.279Z,99575.41
2019-01-29T16:43:19.755Z,99571.55
2019-01-29T16:45:50.181Z,99574.84
2019-01-29T16:48:20.657Z,99564.22
2019-01-29T16:50:51.151Z,99560.80
2019-01-29T16:53:21.789Z,99559.33
2019-01-29T16:55:52.343Z,99554.17
2019-01-29T16:58:22.751Z,99556.02
2019-01-29T17:00:55.572Z,99559.09
2019-01-29T17:03:28.305Z,99556.56
2019-01-29T17:05:58.945Z,99546.72
2019-01-29T17:08:29.627Z,99541.67
2019-01-29T17:11:00.110Z,99540.42
2019-01-29T17:13:30.450Z,99531.80
2019-01-29T17:16:00.933Z,99537.50
2019-01-29T17:18:31.378Z,99532.79
2019-01-29T17:21:01.729Z,99526.91
2019-01-29T17:23:32.229Z,99522.09
2019-01-29T17:26:02.671Z,99521.33
2019-01-29T17:28:33.146Z,99519.64
2019-01-29T17:31:03.578Z,99517.48
2019-01-29T17:33:34.007Z,99508.90
2019-01-29T17:36:04.744Z,99510.20
2019-01-29T17:38:44.393Z,99498.98
2019-01-29T17:41:09.959Z,99495.47
2019-01-29T17:43:41.126Z,99496.06
2019-01-29T17:46:11.539Z,99493.07
2019-01-29T17:48:43.374Z,99493.13
2019-01-29T17:51:14.049Z,99486.28
2019-01-29T17:53:44.451Z,99487.16
2019-01-29T17:56:15.072Z,99479.83
2019-01-29T17:58:45.518Z,99469.37
2019-01-29T18:01:16.717Z,99467.36
2019-01-29T18:03:47.119Z,99468.06
2019-01-29T18:06:17.545Z,99458.64
2019-01-29T18:08:50.195Z,99456.95
2019-01-29T18:11:20.191Z,99455.23
2019-01-29T18:13:51.190Z,99441.84
2019-01-29T18:16:25.316Z,99444.83
2019-01-29T18:18:55.780Z,99438.43
2019-01-29T18:21:26.218Z,99431.98
2019-01-29T18:23:56.757Z,99428.55
2019-01-29T18:26:27.612Z,99427.64
2019-01-29T18:28:58.147Z,99421.47
2019-01-29T18:31:28.772Z,99420.59
2019-01-29T18:33:59.302Z,99413.61
2019-01-29T18:36:29.696Z,99411.72
2019-01-29T18:39:00.077Z,99411.44
2019-01-29T18:41:30.759Z,99411.06
2019-01-29T18:44:01.269Z,99400.22
2019-01-29T18:46:33.825Z,99400.59
2019-01-29T18:49:06.309Z,99398.81
2019-01-29T18:51:36.919Z,99392.31
2019-01-29T18:54:07.260Z,99392.20
2019-01-29T18:56:37.763Z,99384.41
2019-01-29T18:59:11.494Z,99376.48
2019-01-29T19:01:41.946Z,99375.61
2019-01-29T19:04:12.326Z,99375.08
2019-01-29T19:06:42.779Z,99372.78
2019-01-29T19:09:13.160Z,99369.88
2019-01-29T19:11:44.177Z,99362.55
2019-01-29T19:14:14.713Z,99362.18
2019-01-29T19:16:45.094Z,99363.48
2019-01-29T19:19:15.749Z,99356.09
2019-01-29T19:21:48.253Z,99353.98
2019-01-29T19:24:18.689Z,99360.38
2019-01-29T19:26:49.060Z,99352.19
2019-01-29T19:29:19.519Z,99356.09
2019-01-29T19:31:49.944Z,99351.72
2019-01-29T19:34:20.424Z,99352.19
2019-01-29T19:36:50.913Z,99351.22
2019-01-29T19:39:21.357Z,99346.19
2019-01-29T19:41:51.748Z,99343.75
2019-01-29T19:44:22.231Z,99341.26
2019-01-29T19:46:54.722Z,99337.46
2019-01-29T19:49:25.170Z,99337.08
2019-01-29T19:51:55.512Z,99329.33
2019-01-29T19:54:25.954Z,99325.48
2019-01-29T19:56:56.496Z,99317.18
2019-01-29T19:59:27.642Z,99311.67
2019-01-29T20:01:58.098Z,99309.92
2019-01-29T20:04:28.572Z,99306.41
2019-01-29T20:06:59.404Z,99305.06
2019-01-29T20:09:32.521Z,99300.83
2019-01-29T20:12:03.128Z,99296.64
2019-01-29T20:14:33.503Z,99300.33
2019-01-29T20:17:07.125Z,99294.20
2019-01-29T20:19:40.072Z,99286.41
2019-01-29T20:22:13.156Z,99281.95
2019-01-29T20:24:44.039Z,99282.45
2019-01-29T20:27:14.696Z,99284.66
2019-01-29T20:29:46.054Z,99279.52
2019-01-29T20:32:19.784Z,99272.59
2019-01-29T20:34:50.262Z,99268.75
2019-01-29T20:37:20.686Z,99264.91
2019-01-29T20:39:51.578Z,99261.06
2019-01-29T20:42:21.991Z,99261.97
2019-01-29T20:44:52.463Z,99257.55
2019-01-29T20:47:22.972Z,99258.02
2019-01-29T20:49:56.304Z,99248.50
2019-01-29T20:52:26.771Z,99248.00
2019-01-29T20:54:57.341Z,99244.73
2019-01-29T20:57:27.726Z,99237.42
2019-01-29T20:59:58.153Z,99235.35
2019-01-29T21:02:28.718Z,99231.53
2019-01-29T21:05:02.801Z,99233.58
2019-01-29T21:07:33.435Z,99224.41
2019-01-29T21:10:04.133Z,99223.64
2019-01-29T21:12:34.334Z,99219.09
2019-01-29T21:15:05.329Z,99220.28
2019-01-29T21:17:35.756Z,99217.30
2019-01-29T21:20:07.469Z,99211.53
2019-01-29T21:22:37.870Z,99217.69
2019-01-29T21:25:09.651Z,99213.60
2019-01-29T21:27:40.015Z,99211.92
2019-01-29T21:30:17.311Z,99201.19
2019-01-29T21:32:47.764Z,99191.16
2019-01-29T21:35:18.088Z,99188.95
2019-01-29T21:37:48.602Z,99185.96
2019-01-29T21:40:19.208Z,99186.97
2019-01-29T21:42:49.763Z,99186.91
2019-01-29T21:45:20.079Z,99179.22
2019-01-29T21:47:50.500Z,99177.16
2019-01-29T21:50:23.194Z,99174.99
2019-01-29T21:52:53.704Z,99165.15
2019-01-29T21:55:24.136Z,99166.95
2019-01-29T21:57:54.496Z,99166.77
2019-01-29T22:00:33.354Z,99158.76
2019-01-29T22:03:03.752Z,99156.96
2019-01-29T22:05:34.124Z,99156.42
2019-01-29T22:08:04.594Z,99149.98
2019-01-29T22:10:35.315Z,99146.67
2019-01-29T22:13:07.278Z,99143.48
2019-01-29T22:15:37.729Z,99140.44
2019-01-29T22:18:11.455Z,99133.98
2019-01-29T22:20:42.018Z,99133.24
2019-01-29T22:23:12.716Z,99127.86
2019-01-29T22:25:42.992Z,99122.10
2019-01-29T22:28:13.313Z,99117.81
2019-01-29T22:30:44.290Z,99110.90
2019-01-29T22:33:14.634Z,99105.23
2019-01-29T22:35:44.983Z,99100.48
2019-01-29T22:38:15.338Z,99094.78
2019-01-29T22:40:45.666Z,99093.22
2019-01-29T22:43:15.979Z,99082.94
2019-01-29T22:45:46.386Z,99080.47
2019-01-29T22:48:16.799Z,99083.88
2019-01-29T22:50:47.203Z,99079.52
2019-01-29T22:53:17.601Z,99073.77
2019-01-29T22:55:47.892Z,99069.93
2019-01-29T22:58:19.296Z,99066.91
2019-01-29T23:01:20.084Z,99063.02
2019-01-29T23:03:54.098Z,99051.31
2019-01-29T23:06:48.008Z,99054.03
2019-01-29T23:09:18.496Z,99053.66
2019-01-29T23:11:50.037Z,99050.61
2019-01-29T23:14:20.407Z,99037.92
2019-01-29T23:16:51.573Z,99034.52
2019-01-29T23:19:24.715Z,99024.37
2019-01-29T23:21:55.179Z,99027.32
2019-01-29T23:24:26.426Z,99025.00
2019-01-29T23:26:56.756Z,99018.62
2019-01-29T23:29:30.162Z,99008.81
2019-01-29T23:32:00.536Z,99003.69
2019-01-29T23:34:30.922Z,98997.38
2019-01-29T23:37:01.402Z,98990.87
2019-01-29T23:39:32.007Z,98991.44
2019-01-29T23:42:02.363Z,98986.77
2019-01-29T23:44:32.651Z,98981.32
2019-01-29T23:47:03.039Z,98974.41
2019-01-29T23:49:33.480Z,98970.70
2019-01-29T23:52:03.872Z,98967.14
2019-01-29T23:54:34.276Z,98967.59
2019-01-29T23:57:04.687Z,98964.17
2019-01-29T23:59:35.605Z,98961.00
